This is the latest recevied weather packets stored in our database for station/object G4ZMG. If no packets are shown the sender has not sent any weather packets the latest 10 day(s).
| Time | Temp. | Humidity | Pressure | Rain* | Wind** | Luminosity | Snow |
|---|---|---|---|---|---|---|---|
| 1777690806 | 9.44° C | 90% | 1016.8 hPa | 0 mm | - | 0 W/m² | - |
| 1777690248 | 9.44° C | 90% | 1016.8 hPa | 0 mm | - | 0 W/m² | - |
| 1777689639 | 10° C | 90% | 1016.8 hPa | 0 mm | - | 0 W/m² | - |
| 1777689033 | 10° C | 90% | 1016.7 hPa | 0 mm | - | 0 W/m² | - |
| 1777688431 | 10° C | 90% | 1016.9 hPa | 0 mm | - | 0 W/m² | - |
| 1777687821 | 10° C | 90% | 1017 hPa | 0 mm | - | 0 W/m² | - |
| 1777671609 | 11.67° C | 90% | 1017.9 hPa | 0 mm | - | 0 W/m² | - |
| 1777671039 | 11.67° C | 90% | 1017.9 hPa | 0 mm | - | 0 W/m² | - |
| 1777670423 | 11.67° C | 90% | 1017.9 hPa | 0 mm | - | 0 W/m² | - |
| 1777669227 | 11.67° C | 88% | 1017.8 hPa | 0 mm | - | 0 W/m² | - |
| 1777667435 | 12.78° C | 87% | 1017.8 hPa | 0 mm | - | 0 W/m² | - |
| 1777666827 | 12.78° C | 87% | 1017.8 hPa | 0 mm | - | 0 W/m² | - |
| 1777665026 | 13.33° C | 86% | 1017.8 hPa | 0 mm | - | 0 W/m² | - |
| 1777663232 | 13.33° C | 86% | 1017.7 hPa | 0 mm | - | 7 W/m² | - |
| 1777660246 | 13.89° C | 85% | 1017.4 hPa | 0 mm | - | 25 W/m² | - |
| 1777659642 | 13.89° C | 85% | 1017.4 hPa | 0 mm | - | 35 W/m² | - |
| 1777659032 | 13.89° C | 84% | 1017.4 hPa | 0 mm | - | 51 W/m² | - |
| 1777657849 | 13.89° C | 85% | 1017.4 hPa | 0 mm | - | 105 W/m² | - |
| 1777656633 | 13.89° C | 84% | 1017.4 hPa | 0 mm | - | 76 W/m² | - |
| 1777656031 | 13.89° C | 85% | 1017.3 hPa | 0 mm | - | 125 W/m² | - |
| 1777655421 | 13.89° C | 86% | 1017.4 hPa | 0 mm | - | 188 W/m² | - |
| 1777653648 | 14.44° C | 86% | 1017.4 hPa | 0 mm | - | 160 W/m² | - |
| 1777651841 | 15° C | 86% | 1017.3 hPa | 0 mm | - | 332 W/m² | - |
| 1777651246 | 14.44° C | 88% | 1017.3 hPa | 0 mm | - | 260 W/m² | - |
| 1777650643 | 14.44° C | 89% | 1017.5 hPa | 0 mm | - | 246 W/m² | - |
* Rain latest hour (hover to see other rain measurements)
** Current wind speed in m/s (hover to see current wind gust speed)